sensor_id;sensor_type;location;lat;lon;timestamp;pressure;altitude;pressure_sealevel;temperature;humidity
43071;BME280;36278;47.952;21.714;2023-06-22T00:01:21;100418.78;;;21.87;100.00
43071;BME280;36278;47.952;21.714;2023-06-22T00:03:49;100418.59;;;21.89;100.00
43071;BME280;36278;47.952;21.714;2023-06-22T00:06:15;100424.19;;;21.87;100.00
43071;BME280;36278;47.952;21.714;2023-06-22T00:08:40;100404.06;;;21.90;100.00
43071;BME280;36278;47.952;21.714;2023-06-22T00:11:06;100403.03;;;21.91;100.00
43071;BME280;36278;47.952;21.714;2023-06-22T00:13:31;100404.66;;;21.85;100.00
43071;BME280;36278;47.952;21.714;2023-06-22T00:15:56;100400.28;;;21.84;100.00
43071;BME280;36278;47.952;21.714;2023-06-22T00:18:22;100396.75;;;21.83;100.00
43071;BME280;36278;47.952;21.714;2023-06-22T00:20:47;100382.88;;;21.87;100.00
43071;BME280;36278;47.952;21.714;2023-06-22T00:23:12;100387.25;;;21.88;100.00
43071;BME280;36278;47.952;21.714;2023-06-22T00:25:40;100399.44;;;21.83;100.00
43071;BME280;36278;47.952;21.714;2023-06-22T00:28:06;100405.09;;;21.74;100.00
43071;BME280;36278;47.952;21.714;2023-06-22T00:30:32;100409.50;;;21.75;100.00
43071;BME280;36278;47.952;21.714;2023-06-22T00:32:58;100390.88;;;21.80;100.00
43071;BME280;36278;47.952;21.714;2023-06-22T00:35:24;100378.88;;;21.82;100.00
43071;BME280;36278;47.952;21.714;2023-06-22T00:37:54;100385.13;;;21.83;100.00
43071;BME280;36278;47.952;21.714;2023-06-22T00:40:25;100407.91;;;21.80;100.00
43071;BME280;36278;47.952;21.714;2023-06-22T00:42:50;100402.69;;;21.79;100.00
43071;BME280;36278;47.952;21.714;2023-06-22T00:45:16;100401.03;;;21.78;100.00
43071;BME280;36278;47.952;21.714;2023-06-22T00:47:41;100409.66;;;21.73;100.00
43071;BME280;36278;47.952;21.714;2023-06-22T00:50:08;100413.97;;;21.68;100.00
43071;BME280;36278;47.952;21.714;2023-06-22T00:52:34;100417.50;;;21.68;100.00
43071;BME280;36278;47.952;21.714;2023-06-22T00:55:01;100423.34;;;21.72;100.00
43071;BME280;36278;47.952;21.714;2023-06-22T00:57:27;100428.47;;;21.67;100.00
43071;BME280;36278;47.952;21.714;2023-06-22T00:59:53;100436.44;;;21.60;100.00
43071;BME280;36278;47.952;21.714;2023-06-22T01:02:18;100449.00;;;21.53;100.00
43071;BME280;36278;47.952;21.714;2023-06-22T01:04:44;100460.69;;;21.45;100.00
43071;BME280;36278;47.952;21.714;2023-06-22T01:07:21;100456.50;;;21.43;100.00
43071;BME280;36278;47.952;21.714;2023-06-22T01:12:34;100453.25;;;21.47;100.00
43071;BME280;36278;47.952;21.714;2023-06-22T01:17:47;100487.53;;;21.39;100.00
43071;BME280;36278;47.952;21.714;2023-06-22T01:20:13;100491.13;;;21.31;100.00
43071;BME280;36278;47.952;21.714;2023-06-22T01:25:24;100486.94;;;21.29;100.00
43071;BME280;36278;47.952;21.714;2023-06-22T01:30:19;100493.59;;;21.18;100.00
43071;BME280;36278;47.952;21.714;2023-06-22T01:32:45;100494.41;;;21.18;100.00
43071;BME280;36278;47.952;21.714;2023-06-22T01:35:12;100488.25;;;21.10;100.00
43071;BME280;36278;47.952;21.714;2023-06-22T01:37:37;100488.59;;;21.07;100.00
43071;BME280;36278;47.952;21.714;2023-06-22T01:40:03;100478.66;;;21.07;100.00
43071;BME280;36278;47.952;21.714;2023-06-22T01:42:31;100483.59;;;21.04;100.00
43071;BME280;36278;47.952;21.714;2023-06-22T01:44:56;100477.69;;;21.00;100.00
43071;BME280;36278;47.952;21.714;2023-06-22T01:47:22;100474.41;;;20.90;100.00
43071;BME280;36278;47.952;21.714;2023-06-22T01:49:48;100465.31;;;20.91;100.00
43071;BME280;36278;47.952;21.714;2023-06-22T01:52:13;100459.94;;;20.91;100.00
43071;BME280;36278;47.952;21.714;2023-06-22T01:54:39;100454.09;;;20.87;100.00
43071;BME280;36278;47.952;21.714;2023-06-22T01:57:05;100452.56;;;20.85;100.00
43071;BME280;36278;47.952;21.714;2023-06-22T02:02:06;100445.69;;;20.82;100.00
43071;BME280;36278;47.952;21.714;2023-06-22T02:04:36;100442.16;;;20.82;100.00
43071;BME280;36278;47.952;21.714;2023-06-22T02:07:04;100444.53;;;20.77;100.00
43071;BME280;36278;47.952;21.714;2023-06-22T02:09:30;100442.53;;;20.79;100.00
43071;BME280;36278;47.952;21.714;2023-06-22T02:11:56;100442.03;;;20.75;100.00
43071;BME280;36278;47.952;21.714;2023-06-22T02:14:22;100447.41;;;20.75;100.00
43071;BME280;36278;47.952;21.714;2023-06-22T02:16:48;100443.88;;;20.75;100.00
43071;BME280;36278;47.952;21.714;2023-06-22T02:19:14;100443.72;;;20.76;100.00
43071;BME280;36278;47.952;21.714;2023-06-22T02:21:41;100456.19;;;20.77;100.00
43071;BME280;36278;47.952;21.714;2023-06-22T02:24:06;100454.31;;;20.78;100.00
43071;BME280;36278;47.952;21.714;2023-06-22T02:26:31;100450.59;;;20.79;100.00
43071;BME280;36278;47.952;21.714;2023-06-22T02:28:57;100441.69;;;20.78;100.00
43071;BME280;36278;47.952;21.714;2023-06-22T02:31:23;100441.50;;;20.80;100.00
43071;BME280;36278;47.952;21.714;2023-06-22T02:33:56;100450.25;;;20.82;100.00
43071;BME280;36278;47.952;21.714;2023-06-22T02:36:22;100452.94;;;20.82;100.00
43071;BME280;36278;47.952;21.714;2023-06-22T02:38:49;100453.94;;;20.81;100.00
43071;BME280;36278;47.952;21.714;2023-06-22T02:41:14;100458.88;;;20.77;100.00
43071;BME280;36278;47.952;21.714;2023-06-22T02:43:43;100457.16;;;20.76;100.00
43071;BME280;36278;47.952;21.714;2023-06-22T02:46:08;100469.97;;;20.74;100.00
43071;BME280;36278;47.952;21.714;2023-06-22T02:48:34;100479.06;;;20.73;100.00
43071;BME280;36278;47.952;21.714;2023-06-22T02:51:00;100470.16;;;20.73;100.00
43071;BME280;36278;47.952;21.714;2023-06-22T02:53:25;100469.13;;;20.74;100.00
43071;BME280;36278;47.952;21.714;2023-06-22T02:55:50;100475.38;;;20.74;100.00
43071;BME280;36278;47.952;21.714;2023-06-22T02:58:15;100477.22;;;20.74;100.00
43071;BME280;36278;47.952;21.714;2023-06-22T03:00:41;100483.63;;;20.73;100.00
43071;BME280;36278;47.952;21.714;2023-06-22T03:03:06;100481.94;;;20.71;100.00
43071;BME280;36278;47.952;21.714;2023-06-22T03:05:32;100485.47;;;20.72;100.00
43071;BME280;36278;47.952;21.714;2023-06-22T03:07:57;100493.38;;;20.74;100.00
43071;BME280;36278;47.952;21.714;2023-06-22T03:10:23;100480.56;;;20.76;100.00
43071;BME280;36278;47.952;21.714;2023-06-22T03:12:48;100487.63;;;20.77;100.00
43071;BME280;36278;47.952;21.714;2023-06-22T03:15:13;100485.09;;;20.75;100.00
43071;BME280;36278;47.952;21.714;2023-06-22T03:17:39;100477.22;;;20.74;100.00
43071;BME280;36278;47.952;21.714;2023-06-22T03:20:05;100481.75;;;20.73;100.00
43071;BME280;36278;47.952;21.714;2023-06-22T03:22:40;100480.22;;;20.79;100.00
43071;BME280;36278;47.952;21.714;2023-06-22T03:25:06;100489.97;;;20.80;100.00
43071;BME280;36278;47.952;21.714;2023-06-22T03:27:36;100480.41;;;20.77;100.00
43071;BME280;36278;47.952;21.714;2023-06-22T03:30:01;100476.38;;;20.73;100.00
43071;BME280;36278;47.952;21.714;2023-06-22T03:32:27;100487.16;;;20.73;100.00
43071;BME280;36278;47.952;21.714;2023-06-22T03:34:53;100502.66;;;20.71;100.00
43071;BME280;36278;47.952;21.714;2023-06-22T03:37:18;100500.97;;;20.70;100.00
43071;BME280;36278;47.952;21.714;2023-06-22T03:39:44;100505.16;;;20.73;100.00
43071;BME280;36278;47.952;21.714;2023-06-22T03:42:09;100505.16;;;20.73;100.00
43071;BME280;36278;47.952;21.714;2023-06-22T03:44:35;100510.34;;;20.74;100.00
43071;BME280;36278;47.952;21.714;2023-06-22T03:47:02;100515.56;;;20.76;100.00
43071;BME280;36278;47.952;21.714;2023-06-22T03:49:27;100513.72;;;20.76;100.00
43071;BME280;36278;47.952;21.714;2023-06-22T03:51:52;100528.31;;;20.82;100.00
43071;BME280;36278;47.952;21.714;2023-06-22T03:54:17;100529.16;;;20.82;100.00
43071;BME280;36278;47.952;21.714;2023-06-22T03:56:43;100527.97;;;20.85;100.00
43071;BME280;36278;47.952;21.714;2023-06-22T03:59:08;100538.38;;;20.88;100.00
43071;BME280;36278;47.952;21.714;2023-06-22T04:01:33;100544.63;;;20.88;100.00
43071;BME280;36278;47.952;21.714;2023-06-22T04:03:59;100541.09;;;20.88;100.00
43071;BME280;36278;47.952;21.714;2023-06-22T04:06:24;100542.88;;;20.95;100.00
43071;BME280;36278;47.952;21.714;2023-06-22T04:08:49;100552.78;;;21.03;100.00
43071;BME280;36278;47.952;21.714;2023-06-22T04:11:19;100555.41;;;21.11;100.00
43071;BME280;36278;47.952;21.714;2023-06-22T04:13:44;100558.53;;;21.23;100.00
43071;BME280;36278;47.952;21.714;2023-06-22T04:16:09;100563.69;;;21.33;100.00
43071;BME280;36278;47.952;21.714;2023-06-22T04:18:35;100564.47;;;21.41;100.00
43071;BME280;36278;47.952;21.714;2023-06-22T04:21:01;100567.28;;;21.48;100.00
43071;BME280;36278;47.952;21.714;2023-06-22T04:23:26;100566.03;;;21.59;100.00
43071;BME280;36278;47.952;21.714;2023-06-22T04:25:51;100569.72;;;21.58;100.00
43071;BME280;36278;47.952;21.714;2023-06-22T04:28:17;100568.97;;;21.49;100.00
43071;BME280;36278;47.952;21.714;2023-06-22T04:30:42;100571.50;;;21.27;100.00
43071;BME280;36278;47.952;21.714;2023-06-22T04:33:15;100573.25;;;21.12;100.00
43071;BME280;36278;47.952;21.714;2023-06-22T04:35:40;100569.41;;;21.07;100.00
43071;BME280;36278;47.952;21.714;2023-06-22T04:38:08;100575.34;;;21.02;100.00
43071;BME280;36278;47.952;21.714;2023-06-22T04:40:34;100570.06;;;21.09;100.00
43071;BME280;36278;47.952;21.714;2023-06-22T04:42:59;100569.72;;;21.12;100.00
43071;BME280;36278;47.952;21.714;2023-06-22T04:45:27;100567.63;;;21.22;100.00
43071;BME280;36278;47.952;21.714;2023-06-22T04:47:54;100573.38;;;21.27;100.00
43071;BME280;36278;47.952;21.714;2023-06-22T04:50:19;100569.47;;;21.30;100.00
43071;BME280;36278;47.952;21.714;2023-06-22T04:52:46;100574.97;;;21.36;100.00
43071;BME280;36278;47.952;21.714;2023-06-22T04:55:12;100566.19;;;21.42;100.00
43071;BME280;36278;47.952;21.714;2023-06-22T04:57:37;100567.28;;;21.48;100.00
43071;BME280;36278;47.952;21.714;2023-06-22T05:00:04;100559.72;;;21.66;100.00
43071;BME280;36278;47.952;21.714;2023-06-22T05:02:43;100557.63;;;21.76;100.00
43071;BME280;36278;47.952;21.714;2023-06-22T05:05:09;100563.22;;;21.75;100.00
43071;BME280;36278;47.952;21.714;2023-06-22T05:07:38;100570.28;;;21.76;100.00
43071;BME280;36278;47.952;21.714;2023-06-22T05:10:05;100571.94;;;21.77;100.00
43071;BME280;36278;47.952;21.714;2023-06-22T05:12:30;100567.28;;;21.71;100.00
43071;BME280;36278;47.952;21.714;2023-06-22T05:14:56;100572.66;;;21.71;100.00
43071;BME280;36278;47.952;21.714;2023-06-22T05:17:21;100581.66;;;21.63;100.00
43071;BME280;36278;47.952;21.714;2023-06-22T05:19:47;100575.06;;;21.66;100.00
43071;BME280;36278;47.952;21.714;2023-06-22T05:22:15;100580.69;;;21.79;100.00
43071;BME280;36278;47.952;21.714;2023-06-22T05:24:41;100575.97;;;21.96;100.00
43071;BME280;36278;47.952;21.714;2023-06-22T05:27:07;100572.25;;;21.97;100.00
43071;BME280;36278;47.952;21.714;2023-06-22T05:29:32;100567.94;;;22.10;100.00
43071;BME280;36278;47.952;21.714;2023-06-22T05:31:58;100576.38;;;22.22;100.00
43071;BME280;36278;47.952;21.714;2023-06-22T05:34:23;100560.41;;;22.35;100.00
43071;BME280;36278;47.952;21.714;2023-06-22T05:36:48;100568.78;;;22.41;100.00
43071;BME280;36278;47.952;21.714;2023-06-22T05:39:14;100555.84;;;22.36;100.00
43071;BME280;36278;47.952;21.714;2023-06-22T05:41:40;100551.38;;;22.28;100.00
43071;BME280;36278;47.952;21.714;2023-06-22T05:44:05;100552.59;;;22.26;100.00
43071;BME280;36278;47.952;21.714;2023-06-22T05:46:31;100552.59;;;22.26;100.00
43071;BME280;36278;47.952;21.714;2023-06-22T05:48:56;100551.16;;;22.30;100.00
43071;BME280;36278;47.952;21.714;2023-06-22T05:51:21;100556.97;;;22.42;100.00
43071;BME280;36278;47.952;21.714;2023-06-22T05:53:46;100557.78;;;22.42;100.00
43071;BME280;36278;47.952;21.714;2023-06-22T05:56:14;100561.13;;;22.44;100.00
43071;BME280;36278;47.952;21.714;2023-06-22T05:58:40;100557.78;;;22.42;100.00
43071;BME280;36278;47.952;21.714;2023-06-22T06:01:08;100556.97;;;22.42;100.00
43071;BME280;36278;47.952;21.714;2023-06-22T06:03:33;100554.59;;;22.38;100.00
43071;BME280;36278;47.952;21.714;2023-06-22T06:05:59;100555.53;;;22.46;100.00
43071;BME280;36278;47.952;21.714;2023-06-22T06:08:24;100556.84;;;22.50;100.00
43071;BME280;36278;47.952;21.714;2023-06-22T06:10:50;100556.06;;;22.56;100.00
43071;BME280;36278;47.952;21.714;2023-06-22T06:13:17;100565.09;;;22.63;100.00
43071;BME280;36278;47.952;21.714;2023-06-22T06:15:43;100568.38;;;22.58;100.00
43071;BME280;36278;47.952;21.714;2023-06-22T06:18:08;100576.50;;;22.58;100.00
43071;BME280;36278;47.952;21.714;2023-06-22T06:20:34;100579.72;;;22.69;100.00
43071;BME280;36278;47.952;21.714;2023-06-22T06:22:59;100590.53;;;22.69;100.00
43071;BME280;36278;47.952;21.714;2023-06-22T06:25:24;100597.41;;;22.71;100.00
43071;BME280;36278;47.952;21.714;2023-06-22T06:27:51;100599.47;;;22.69;100.00
43071;BME280;36278;47.952;21.714;2023-06-22T06:30:17;100603.19;;;22.68;100.00
43071;BME280;36278;47.952;21.714;2023-06-22T06:32:43;100599.47;;;22.69;100.00
43071;BME280;36278;47.952;21.714;2023-06-22T06:35:10;100595.94;;;22.69;100.00
43071;BME280;36278;47.952;21.714;2023-06-22T06:37:36;100601.97;;;22.71;100.00
43071;BME280;36278;47.952;21.714;2023-06-22T06:40:05;100605.25;;;22.66;100.00
43071;BME280;36278;47.952;21.714;2023-06-22T06:42:35;100594.75;;;22.56;100.00
43071;BME280;36278;47.952;21.714;2023-06-22T06:45:03;100610.66;;;22.66;100.00
43071;BME280;36278;47.952;21.714;2023-06-22T06:47:28;100615.38;;;22.79;100.00
43071;BME280;36278;47.952;21.714;2023-06-22T06:49:54;100616.50;;;22.70;100.00
43071;BME280;36278;47.952;21.714;2023-06-22T06:52:19;100617.09;;;22.65;100.00
43071;BME280;36278;47.952;21.714;2023-06-22T06:54:45;100619.78;;;22.65;100.00
43071;BME280;36278;47.952;21.714;2023-06-22T06:57:10;100619.78;;;22.65;100.00
43071;BME280;36278;47.952;21.714;2023-06-22T06:59:38;100613.72;;;22.63;100.00
43071;BME280;36278;47.952;21.714;2023-06-22T07:02:04;100621.25;;;22.53;100.00
43071;BME280;36278;47.952;21.714;2023-06-22T07:04:29;100617.81;;;22.59;100.00
43071;BME280;36278;47.952;21.714;2023-06-22T07:06:55;100621.38;;;22.59;100.00
43071;BME280;36278;47.952;21.714;2023-06-22T07:09:20;100614.38;;;22.65;100.00
43071;BME280;36278;47.952;21.714;2023-06-22T07:11:45;100611.38;;;22.75;100.00
43071;BME280;36278;47.952;21.714;2023-06-22T07:14:11;100612.25;;;22.90;100.00
43071;BME280;36278;47.952;21.714;2023-06-22T07:16:36;100612.56;;;23.02;100.00
43071;BME280;36278;47.952;21.714;2023-06-22T07:19:01;100609.75;;;23.10;100.00
43071;BME280;36278;47.952;21.714;2023-06-22T07:21:27;100607.41;;;23.21;99.37
43071;BME280;36278;47.952;21.714;2023-06-22T07:23:52;100618.97;;;23.15;100.00
43071;BME280;36278;47.952;21.714;2023-06-22T07:26:19;100618.00;;;23.38;100.00
43071;BME280;36278;47.952;21.714;2023-06-22T07:28:44;100620.22;;;23.70;98.14
43071;BME280;36278;47.952;21.714;2023-06-22T07:31:09;100615.84;;;23.97;96.06
43071;BME280;36278;47.952;21.714;2023-06-22T07:33:35;100619.53;;;23.90;95.92
43071;BME280;36278;47.952;21.714;2023-06-22T07:36:00;100618.00;;;23.81;95.90
43071;BME280;36278;47.952;21.714;2023-06-22T07:38:26;100624.03;;;24.04;95.54
43071;BME280;36278;47.952;21.714;2023-06-22T07:40:51;100617.63;;;24.40;94.17
43071;BME280;36278;47.952;21.714;2023-06-22T07:43:18;100625.47;;;24.63;93.53
43071;BME280;36278;47.952;21.714;2023-06-22T07:45:49;100613.00;;;24.68;91.60
43071;BME280;36278;47.952;21.714;2023-06-22T07:50:43;100617.06;;;24.99;89.87
43071;BME280;36278;47.952;21.714;2023-06-22T07:53:09;100637.03;;;25.32;89.00
43071;BME280;36278;47.952;21.714;2023-06-22T07:55:34;100628.25;;;25.17;88.89
43071;BME280;36278;47.952;21.714;2023-06-22T07:57:59;100638.31;;;24.88;90.33
43071;BME280;36278;47.952;21.714;2023-06-22T08:00:25;100639.13;;;24.48;92.06
43071;BME280;36278;47.952;21.714;2023-06-22T08:02:50;100632.47;;;24.50;92.13
43071;BME280;36278;47.952;21.714;2023-06-22T08:05:15;100620.53;;;24.73;91.30
43071;BME280;36278;47.952;21.714;2023-06-22T08:07:44;100616.34;;;24.70;90.03
43071;BME280;36278;47.952;21.714;2023-06-22T08:10:12;100614.50;;;24.77;90.38
43071;BME280;36278;47.952;21.714;2023-06-22T08:12:41;100620.81;;;24.91;86.83
43071;BME280;36278;47.952;21.714;2023-06-22T08:15:07;100622.28;;;25.00;87.20
43071;BME280;36278;47.952;21.714;2023-06-22T08:17:32;100627.25;;;24.90;89.17
43071;BME280;36278;47.952;21.714;2023-06-22T08:19:58;100628.88;;;25.19;86.93
43071;BME280;36278;47.952;21.714;2023-06-22T08:22:23;100625.19;;;25.53;84.76
43071;BME280;36278;47.952;21.714;2023-06-22T08:24:48;100618.31;;;25.70;83.01
43071;BME280;36278;47.952;21.714;2023-06-22T08:27:14;100619.59;;;25.88;83.09
43071;BME280;36278;47.952;21.714;2023-06-22T08:29:44;100620.84;;;26.12;83.57
43071;BME280;36278;47.952;21.714;2023-06-22T08:32:11;100627.28;;;26.31;81.59
43071;BME280;36278;47.952;21.714;2023-06-22T08:34:36;100630.00;;;26.31;82.96
43071;BME280;36278;47.952;21.714;2023-06-22T08:37:02;100622.50;;;26.19;81.21
43071;BME280;36278;47.952;21.714;2023-06-22T08:39:31;100626.69;;;26.42;80.91
43071;BME280;36278;47.952;21.714;2023-06-22T08:41:57;100628.78;;;26.40;80.22
43071;BME280;36278;47.952;21.714;2023-06-22T08:44:22;100632.94;;;26.22;81.64
43071;BME280;36278;47.952;21.714;2023-06-22T08:46:47;100636.31;;;25.98;83.97
43071;BME280;36278;47.952;21.714;2023-06-22T08:49:13;100630.47;;;25.94;84.57
43071;BME280;36278;47.952;21.714;2023-06-22T08:51:38;100625.25;;;25.86;83.85
43071;BME280;36278;47.952;21.714;2023-06-22T08:54:03;100624.41;;;25.92;83.95
43071;BME280;36278;47.952;21.714;2023-06-22T08:56:29;100628.56;;;26.35;84.08
43071;BME280;36278;47.952;21.714;2023-06-22T08:58:55;100630.63;;;26.52;81.57
43071;BME280;36278;47.952;21.714;2023-06-22T09:01:21;100629.94;;;26.70;79.53
43071;BME280;36278;47.952;21.714;2023-06-22T09:03:47;100630.44;;;26.27;81.78
43071;BME280;36278;47.952;21.714;2023-06-22T09:06:20;100627.94;;;26.46;80.72
43071;BME280;36278;47.952;21.714;2023-06-22T09:08:46;100619.56;;;26.27;81.76
43071;BME280;36278;47.952;21.714;2023-06-22T09:11:12;100625.81;;;26.61;80.22
43071;BME280;36278;47.952;21.714;2023-06-22T09:13:37;100620.41;;;26.28;82.24
43071;BME280;36278;47.952;21.714;2023-06-22T09:16:03;100620.22;;;25.96;84.80
43071;BME280;36278;47.952;21.714;2023-06-22T09:18:28;100622.13;;;25.83;85.50
43071;BME280;36278;47.952;21.714;2023-06-22T09:20:53;100614.97;;;26.35;82.19
43071;BME280;36278;47.952;21.714;2023-06-22T09:23:19;100618.00;;;26.78;79.60
43071;BME280;36278;47.952;21.714;2023-06-22T09:25:44;100607.66;;;27.13;77.95
43071;BME280;36278;47.952;21.714;2023-06-22T09:28:09;100611.59;;;27.49;75.75
43071;BME280;36278;47.952;21.714;2023-06-22T09:30:35;100612.03;;;27.77;76.52
43071;BME280;36278;47.952;21.714;2023-06-22T09:33:00;100611.66;;;27.42;75.48
43071;BME280;36278;47.952;21.714;2023-06-22T09:35:26;100610.63;;;27.36;77.98
43071;BME280;36278;47.952;21.714;2023-06-22T09:37:51;100607.25;;;27.41;76.05
43071;BME280;36278;47.952;21.714;2023-06-22T09:40:17;100603.81;;;27.84;73.61
43071;BME280;36278;47.952;21.714;2023-06-22T09:42:42;100609.03;;;27.29;75.17
43071;BME280;36278;47.952;21.714;2023-06-22T09:45:08;100609.03;;;27.29;76.01
43071;BME280;36278;47.952;21.714;2023-06-22T09:47:33;100610.53;;;27.18;77.84
43071;BME280;36278;47.952;21.714;2023-06-22T09:49:59;100613.03;;;27.20;77.37
43071;BME280;36278;47.952;21.714;2023-06-22T09:52:25;100618.72;;;27.12;78.57
43071;BME280;36278;47.952;21.714;2023-06-22T09:54:50;100621.28;;;26.93;78.00
43071;BME280;36278;47.952;21.714;2023-06-22T09:57:17;100619.41;;;26.94;78.81
43071;BME280;36278;47.952;21.714;2023-06-22T09:59:44;100620.25;;;26.94;77.19
43071;BME280;36278;47.952;21.714;2023-06-22T10:02:09;100623.66;;;26.76;79.64
43071;BME280;36278;47.952;21.714;2023-06-22T10:04:35;100608.91;;;27.04;78.13
43071;BME280;36278;47.952;21.714;2023-06-22T10:07:01;100604.19;;;27.31;75.21
43071;BME280;36278;47.952;21.714;2023-06-22T10:09:27;100601.88;;;27.59;73.88
43071;BME280;36278;47.952;21.714;2023-06-22T10:11:53;100602.66;;;27.73;72.80
43071;BME280;36278;47.952;21.714;2023-06-22T10:14:19;100598.16;;;27.85;72.75
43071;BME280;36278;47.952;21.714;2023-06-22T10:16:45;100601.63;;;28.17;70.93
43071;BME280;36278;47.952;21.714;2023-06-22T10:19:11;100595.78;;;28.39;69.99
43071;BME280;36278;47.952;21.714;2023-06-22T10:21:37;100601.63;;;28.17;71.91
43071;BME280;36278;47.952;21.714;2023-06-22T10:24:02;100600.50;;;28.25;71.26
43071;BME280;36278;47.952;21.714;2023-06-22T10:26:32;100602.19;;;28.01;70.84
43071;BME280;36278;47.952;21.714;2023-06-22T10:28:57;100609.22;;;27.59;72.13
43071;BME280;36278;47.952;21.714;2023-06-22T10:31:23;100609.19;;;27.65;73.05
43071;BME280;36278;47.952;21.714;2023-06-22T10:33:49;100605.28;;;27.55;73.12
43071;BME280;36278;47.952;21.714;2023-06-22T10:36:15;100608.13;;;27.35;71.93
43071;BME280;36278;47.952;21.714;2023-06-22T10:38:40;100613.00;;;27.26;72.83
43071;BME280;36278;47.952;21.714;2023-06-22T10:41:06;100608.16;;;27.28;72.99
43071;BME280;36278;47.952;21.714;2023-06-22T10:43:32;100605.63;;;27.33;73.98
43071;BME280;36278;47.952;21.714;2023-06-22T10:45:59;100607.13;;;27.29;73.54
43071;BME280;36278;47.952;21.714;2023-06-22T10:48:24;100603.41;;;27.24;73.98
43071;BME280;36278;47.952;21.714;2023-06-22T10:50:51;100592.63;;;27.35;73.31
43071;BME280;36278;47.952;21.714;2023-06-22T10:53:18;100598.78;;;27.24;72.72
43071;BME280;36278;47.952;21.714;2023-06-22T10:55:44;100597.94;;;27.24;73.05
43071;BME280;36278;47.952;21.714;2023-06-22T10:58:09;100598.34;;;27.27;74.47
43071;BME280;36278;47.952;21.714;2023-06-22T11:00:38;100597.50;;;27.27;75.95
43071;BME280;36278;47.952;21.714;2023-06-22T11:03:03;100595.63;;;27.27;75.94
43071;BME280;36278;47.952;21.714;2023-06-22T11:05:29;100587.00;;;27.37;75.67
43071;BME280;36278;47.952;21.714;2023-06-22T11:07:54;100584.91;;;27.71;72.51
43071;BME280;36278;47.952;21.714;2023-06-22T11:10:20;100586.84;;;27.88;72.91
43071;BME280;36278;47.952;21.714;2023-06-22T11:12:45;100582.44;;;27.87;72.93
43071;BME280;36278;47.952;21.714;2023-06-22T11:15:11;100589.78;;;27.87;73.32
43071;BME280;36278;47.952;21.714;2023-06-22T11:17:36;100584.69;;;28.15;73.39
43071;BME280;36278;47.952;21.714;2023-06-22T11:20:02;100592.19;;;28.20;71.74
43071;BME280;36278;47.952;21.714;2023-06-22T11:22:30;100578.22;;;28.10;70.80
43071;BME280;36278;47.952;21.714;2023-06-22T11:24:58;100590.03;;;28.04;70.60
43071;BME280;36278;47.952;21.714;2023-06-22T11:27:26;100589.53;;;28.13;70.08
43071;BME280;36278;47.952;21.714;2023-06-22T11:29:53;100586.28;;;28.23;69.52
43071;BME280;36278;47.952;21.714;2023-06-22T11:32:18;100586.13;;;27.93;69.41
43071;BME280;36278;47.952;21.714;2023-06-22T11:34:44;100583.22;;;27.95;70.99
43071;BME280;36278;47.952;21.714;2023-06-22T11:37:10;100581.94;;;28.40;68.60
43071;BME280;36278;47.952;21.714;2023-06-22T11:39:36;100587.53;;;28.64;67.74
43071;BME280;36278;47.952;21.714;2023-06-22T11:42:02;100594.34;;;28.36;69.97
43071;BME280;36278;47.952;21.714;2023-06-22T11:44:27;100590.06;;;28.22;70.49
43071;BME280;36278;47.952;21.714;2023-06-22T11:46:53;100588.97;;;28.05;71.17
43071;BME280;36278;47.952;21.714;2023-06-22T11:49:18;100578.94;;;27.80;73.53
43071;BME280;36278;47.952;21.714;2023-06-22T11:51:43;100587.34;;;27.79;72.40
43071;BME280;36278;47.952;21.714;2023-06-22T11:54:09;100579.38;;;27.77;72.75
43071;BME280;36278;47.952;21.714;2023-06-22T11:56:34;100582.16;;;27.96;72.17
43071;BME280;36278;47.952;21.714;2023-06-22T11:58:59;100578.81;;;28.18;71.63
43071;BME280;36278;47.952;21.714;2023-06-22T12:01:25;100573.44;;;28.67;66.94
43071;BME280;36278;47.952;21.714;2023-06-22T12:03:50;100580.41;;;28.63;66.00
43071;BME280;36278;47.952;21.714;2023-06-22T12:06:16;100569.69;;;28.68;65.77
43071;BME280;36278;47.952;21.714;2023-06-22T12:08:41;100562.69;;;28.72;66.09
43071;BME280;36278;47.952;21.714;2023-06-22T12:11:06;100573.09;;;28.45;67.88
43071;BME280;36278;47.952;21.714;2023-06-22T12:13:31;100565.19;;;28.55;67.68
43071;BME280;36278;47.952;21.714;2023-06-22T12:15:57;100555.94;;;28.74;65.53
43071;BME280;36278;47.952;21.714;2023-06-22T12:18:22;100556.59;;;28.88;66.80
43071;BME280;36278;47.952;21.714;2023-06-22T12:20:47;100556.44;;;28.83;64.82
43071;BME280;36278;47.952;21.714;2023-06-22T12:23:14;100561.91;;;28.83;65.63
43071;BME280;36278;47.952;21.714;2023-06-22T12:25:39;100555.09;;;28.74;67.34
43071;BME280;36278;47.952;21.714;2023-06-22T12:28:05;100549.44;;;28.94;65.59
43071;BME280;36278;47.952;21.714;2023-06-22T12:30:30;100541.44;;;29.11;66.05
43071;BME280;36278;47.952;21.714;2023-06-22T12:32:55;100548.56;;;29.23;64.75
43071;BME280;36278;47.952;21.714;2023-06-22T12:35:21;100542.09;;;29.36;65.15
43071;BME280;36278;47.952;21.714;2023-06-22T12:37:46;100543.06;;;29.42;66.26
43071;BME280;36278;47.952;21.714;2023-06-22T12:40:11;100539.94;;;29.38;65.48
43071;BME280;36278;47.952;21.714;2023-06-22T12:42:37;100545.16;;;29.40;65.00
43071;BME280;36278;47.952;21.714;2023-06-22T12:45:03;100547.56;;;29.06;64.58